<?xml version="1.0" encoding="UTF-8" standalone="no" ?>
<gpx xmlns="http://www.topografix.com/GPX/1/1" xmlns:xsi="http://www.w3.org/2001/XMLSchema-instance" xsi:schemaLocation="http://www.topografix.com/GPX/1/1 http://www.topografix.com/GPX/1/1/gpx.xsd" version="1.1" creator="VisuGPX - https://www.visugpx.com">
  <metadata>
    <name>Ronde des Dragons randonneurs</name>
    <desc><![CDATA[Parcours de le Ronde des Dragons des randonneurs]]></desc>
  </metadata>
  <trk>
    <name><![CDATA[20180325144347-rNt1C]]></name>
    <trkseg>
      <trkpt lat="43.53751" lon="6.46289">
        <ele>184</ele>
        <time>2018-03-25T14:27:46Z</time>
      </trkpt>
      <trkpt lat="43.53833" lon="6.46395">
        <ele>186</ele>
        <time>2018-03-25T14:28:46Z</time>
      </trkpt>
      <trkpt lat="43.5385" lon="6.46425">
        <ele>189</ele>
        <time>2018-03-25T14:29:46Z</time>
      </trkpt>
      <trkpt lat="43.53856" lon="6.46436">
        <ele>190</ele>
        <time>2018-03-25T14:30:46Z</time>
      </trkpt>
      <trkpt lat="43.53875" lon="6.46468">
        <ele>191</ele>
        <time>2018-03-25T14:31:46Z</time>
      </trkpt>
      <trkpt lat="43.53911" lon="6.46499">
        <ele>196</ele>
        <time>2018-03-25T14:32:46Z</time>
      </trkpt>
      <trkpt lat="43.53928" lon="6.4651">
        <ele>197</ele>
        <time>2018-03-25T14:33:46Z</time>
      </trkpt>
      <trkpt lat="43.53934" lon="6.46507">
        <ele>197</ele>
        <time>2018-03-25T14:34:46Z</time>
      </trkpt>
      <trkpt lat="43.53954" lon="6.46478">
        <ele>196</ele>
        <time>2018-03-25T14:35:46Z</time>
      </trkpt>
      <trkpt lat="43.54007" lon="6.46512">
        <ele>198</ele>
        <time>2018-03-25T14:36:46Z</time>
      </trkpt>
      <trkpt lat="43.54058" lon="6.46552">
        <ele>200</ele>
        <time>2018-03-25T14:37:46Z</time>
      </trkpt>
      <trkpt lat="43.54068" lon="6.46563">
        <ele>199</ele>
        <time>2018-03-25T14:38:46Z</time>
      </trkpt>
      <trkpt lat="43.54081" lon="6.46543">
        <ele>200</ele>
        <time>2018-03-25T14:39:46Z</time>
      </trkpt>
      <trkpt lat="43.54102" lon="6.46556">
        <ele>201</ele>
        <time>2018-03-25T14:40:46Z</time>
      </trkpt>
      <trkpt lat="43.54156" lon="6.46509">
        <ele>202</ele>
        <time>2018-03-25T14:41:46Z</time>
      </trkpt>
      <trkpt lat="43.5416" lon="6.46501">
        <ele>203</ele>
        <time>2018-03-25T14:42:46Z</time>
      </trkpt>
      <trkpt lat="43.54161" lon="6.46457">
        <ele>201</ele>
        <time>2018-03-25T14:43:46Z</time>
      </trkpt>
      <trkpt lat="43.54167" lon="6.46453">
        <ele>204</ele>
        <time>2018-03-25T14:44:46Z</time>
      </trkpt>
      <trkpt lat="43.54168" lon="6.46395">
        <ele>201</ele>
        <time>2018-03-25T14:45:46Z</time>
      </trkpt>
      <trkpt lat="43.54174" lon="6.46385">
        <ele>201</ele>
        <time>2018-03-25T14:46:46Z</time>
      </trkpt>
      <trkpt lat="43.54189" lon="6.46371">
        <ele>200</ele>
        <time>2018-03-25T14:47:46Z</time>
      </trkpt>
      <trkpt lat="43.54242" lon="6.46358">
        <ele>202</ele>
        <time>2018-03-25T14:48:46Z</time>
      </trkpt>
      <trkpt lat="43.54272" lon="6.46343">
        <ele>205</ele>
        <time>2018-03-25T14:49:46Z</time>
      </trkpt>
      <trkpt lat="43.54286" lon="6.4632">
        <ele>203</ele>
        <time>2018-03-25T14:50:46Z</time>
      </trkpt>
      <trkpt lat="43.54301" lon="6.46284">
        <ele>203</ele>
        <time>2018-03-25T14:51:46Z</time>
      </trkpt>
      <trkpt lat="43.54326" lon="6.46239">
        <ele>203</ele>
        <time>2018-03-25T14:52:46Z</time>
      </trkpt>
      <trkpt lat="43.54338" lon="6.46213">
        <ele>211</ele>
        <time>2018-03-25T14:53:46Z</time>
      </trkpt>
      <trkpt lat="43.5435" lon="6.46155">
        <ele>206</ele>
        <time>2018-03-25T14:54:46Z</time>
      </trkpt>
      <trkpt lat="43.5436" lon="6.46104">
        <ele>205</ele>
        <time>2018-03-25T14:55:46Z</time>
      </trkpt>
      <trkpt lat="43.54389" lon="6.46068">
        <ele>203</ele>
        <time>2018-03-25T14:56:46Z</time>
      </trkpt>
      <trkpt lat="43.54411" lon="6.46032">
        <ele>203</ele>
        <time>2018-03-25T14:57:46Z</time>
      </trkpt>
      <trkpt lat="43.54437" lon="6.45981">
        <ele>206</ele>
        <time>2018-03-25T14:58:46Z</time>
      </trkpt>
      <trkpt lat="43.5446" lon="6.45967">
        <ele>208</ele>
        <time>2018-03-25T14:59:46Z</time>
      </trkpt>
      <trkpt lat="43.54506" lon="6.45959">
        <ele>213</ele>
        <time>2018-03-25T15:00:46Z</time>
      </trkpt>
      <trkpt lat="43.54525" lon="6.45951">
        <ele>214</ele>
        <time>2018-03-25T15:01:46Z</time>
      </trkpt>
      <trkpt lat="43.5454" lon="6.45935">
        <ele>214</ele>
        <time>2018-03-25T15:02:46Z</time>
      </trkpt>
      <trkpt lat="43.54551" lon="6.4591">
        <ele>215</ele>
        <time>2018-03-25T15:03:46Z</time>
      </trkpt>
      <trkpt lat="43.54561" lon="6.4587">
        <ele>216</ele>
        <time>2018-03-25T15:04:46Z</time>
      </trkpt>
      <trkpt lat="43.54567" lon="6.4584">
        <ele>218</ele>
        <time>2018-03-25T15:05:46Z</time>
      </trkpt>
      <trkpt lat="43.54553" lon="6.45815">
        <ele>219</ele>
        <time>2018-03-25T15:06:46Z</time>
      </trkpt>
      <trkpt lat="43.54552" lon="6.45796">
        <ele>219</ele>
        <time>2018-03-25T15:07:46Z</time>
      </trkpt>
      <trkpt lat="43.54568" lon="6.45746">
        <ele>219</ele>
        <time>2018-03-25T15:08:46Z</time>
      </trkpt>
      <trkpt lat="43.54558" lon="6.45738">
        <ele>218</ele>
        <time>2018-03-25T15:09:46Z</time>
      </trkpt>
      <trkpt lat="43.54552" lon="6.45721">
        <ele>218</ele>
        <time>2018-03-25T15:10:46Z</time>
      </trkpt>
      <trkpt lat="43.54531" lon="6.45661">
        <ele>216</ele>
        <time>2018-03-25T15:11:46Z</time>
      </trkpt>
      <trkpt lat="43.54536" lon="6.45593">
        <ele>214</ele>
        <time>2018-03-25T15:12:46Z</time>
      </trkpt>
      <trkpt lat="43.54547" lon="6.45591">
        <ele>215</ele>
        <time>2018-03-25T15:13:46Z</time>
      </trkpt>
      <trkpt lat="43.54559" lon="6.45593">
        <ele>215</ele>
        <time>2018-03-25T15:14:46Z</time>
      </trkpt>
      <trkpt lat="43.54566" lon="6.4559">
        <ele>215</ele>
        <time>2018-03-25T15:15:46Z</time>
      </trkpt>
      <trkpt lat="43.54576" lon="6.45569">
        <ele>213</ele>
        <time>2018-03-25T15:16:46Z</time>
      </trkpt>
      <trkpt lat="43.54592" lon="6.45528">
        <ele>213</ele>
        <time>2018-03-25T15:17:46Z</time>
      </trkpt>
      <trkpt lat="43.54621" lon="6.45477">
        <ele>211</ele>
        <time>2018-03-25T15:18:46Z</time>
      </trkpt>
      <trkpt lat="43.54618" lon="6.45466">
        <ele>211</ele>
        <time>2018-03-25T15:19:46Z</time>
      </trkpt>
      <trkpt lat="43.54598" lon="6.45447">
        <ele>210</ele>
        <time>2018-03-25T15:20:46Z</time>
      </trkpt>
      <trkpt lat="43.5458" lon="6.45439">
        <ele>206</ele>
        <time>2018-03-25T15:21:46Z</time>
      </trkpt>
      <trkpt lat="43.54554" lon="6.45434">
        <ele>206</ele>
        <time>2018-03-25T15:22:46Z</time>
      </trkpt>
      <trkpt lat="43.54542" lon="6.4542">
        <ele>206</ele>
        <time>2018-03-25T15:23:46Z</time>
      </trkpt>
      <trkpt lat="43.54551" lon="6.45368">
        <ele>205</ele>
        <time>2018-03-25T15:24:46Z</time>
      </trkpt>
      <trkpt lat="43.54559" lon="6.45334">
        <ele>204</ele>
        <time>2018-03-25T15:25:46Z</time>
      </trkpt>
      <trkpt lat="43.54498" lon="6.45311">
        <ele>202</ele>
        <time>2018-03-25T15:26:46Z</time>
      </trkpt>
      <trkpt lat="43.54483" lon="6.45297">
        <ele>202</ele>
        <time>2018-03-25T15:27:46Z</time>
      </trkpt>
      <trkpt lat="43.54472" lon="6.453">
        <ele>202</ele>
        <time>2018-03-25T15:28:46Z</time>
      </trkpt>
      <trkpt lat="43.54458" lon="6.45313">
        <ele>202</ele>
        <time>2018-03-25T15:29:46Z</time>
      </trkpt>
      <trkpt lat="43.54447" lon="6.45319">
        <ele>201</ele>
        <time>2018-03-25T15:30:46Z</time>
      </trkpt>
      <trkpt lat="43.54429" lon="6.45313">
        <ele>201</ele>
        <time>2018-03-25T15:31:46Z</time>
      </trkpt>
      <trkpt lat="43.54418" lon="6.4531">
        <ele>201</ele>
        <time>2018-03-25T15:32:46Z</time>
      </trkpt>
      <trkpt lat="43.54417" lon="6.45291">
        <ele>201</ele>
        <time>2018-03-25T15:33:46Z</time>
      </trkpt>
      <trkpt lat="43.54418" lon="6.45278">
        <ele>200</ele>
        <time>2018-03-25T15:34:46Z</time>
      </trkpt>
      <trkpt lat="43.54422" lon="6.45263">
        <ele>199</ele>
        <time>2018-03-25T15:35:46Z</time>
      </trkpt>
      <trkpt lat="43.54438" lon="6.45236">
        <ele>198</ele>
        <time>2018-03-25T15:36:46Z</time>
      </trkpt>
      <trkpt lat="43.54459" lon="6.45204">
        <ele>198</ele>
        <time>2018-03-25T15:37:46Z</time>
      </trkpt>
      <trkpt lat="43.54476" lon="6.45184">
        <ele>198</ele>
        <time>2018-03-25T15:38:46Z</time>
      </trkpt>
      <trkpt lat="43.54493" lon="6.45189">
        <ele>198</ele>
        <time>2018-03-25T15:39:46Z</time>
      </trkpt>
      <trkpt lat="43.54507" lon="6.45198">
        <ele>200</ele>
        <time>2018-03-25T15:40:46Z</time>
      </trkpt>
      <trkpt lat="43.54557" lon="6.4523">
        <ele>200</ele>
        <time>2018-03-25T15:41:46Z</time>
      </trkpt>
      <trkpt lat="43.54586" lon="6.45236">
        <ele>201</ele>
        <time>2018-03-25T15:42:46Z</time>
      </trkpt>
      <trkpt lat="43.54601" lon="6.45238">
        <ele>201</ele>
        <time>2018-03-25T15:43:46Z</time>
      </trkpt>
      <trkpt lat="43.54615" lon="6.45211">
        <ele>202</ele>
        <time>2018-03-25T15:44:46Z</time>
      </trkpt>
      <trkpt lat="43.54631" lon="6.45169">
        <ele>203</ele>
        <time>2018-03-25T15:45:46Z</time>
      </trkpt>
      <trkpt lat="43.54636" lon="6.45121">
        <ele>201</ele>
        <time>2018-03-25T15:46:46Z</time>
      </trkpt>
      <trkpt lat="43.54643" lon="6.45059">
        <ele>200</ele>
        <time>2018-03-25T15:47:46Z</time>
      </trkpt>
      <trkpt lat="43.54646" lon="6.45009">
        <ele>199</ele>
        <time>2018-03-25T15:48:46Z</time>
      </trkpt>
      <trkpt lat="43.54636" lon="6.44964">
        <ele>199</ele>
        <time>2018-03-25T15:49:46Z</time>
      </trkpt>
      <trkpt lat="43.54628" lon="6.4492">
        <ele>199</ele>
        <time>2018-03-25T15:50:46Z</time>
      </trkpt>
      <trkpt lat="43.54618" lon="6.44905">
        <ele>200</ele>
        <time>2018-03-25T15:51:46Z</time>
      </trkpt>
      <trkpt lat="43.54569" lon="6.44892">
        <ele>197</ele>
        <time>2018-03-25T15:52:46Z</time>
      </trkpt>
      <trkpt lat="43.54555" lon="6.44878">
        <ele>198</ele>
        <time>2018-03-25T15:53:46Z</time>
      </trkpt>
      <trkpt lat="43.54548" lon="6.44859">
        <ele>198</ele>
        <time>2018-03-25T15:54:46Z</time>
      </trkpt>
      <trkpt lat="43.54541" lon="6.44817">
        <ele>199</ele>
        <time>2018-03-25T15:55:46Z</time>
      </trkpt>
      <trkpt lat="43.54531" lon="6.4475">
        <ele>199</ele>
        <time>2018-03-25T15:56:46Z</time>
      </trkpt>
      <trkpt lat="43.54533" lon="6.44718">
        <ele>199</ele>
        <time>2018-03-25T15:57:46Z</time>
      </trkpt>
      <trkpt lat="43.54545" lon="6.44668">
        <ele>199</ele>
        <time>2018-03-25T15:58:46Z</time>
      </trkpt>
      <trkpt lat="43.54565" lon="6.44603">
        <ele>198</ele>
        <time>2018-03-25T15:59:46Z</time>
      </trkpt>
      <trkpt lat="43.54581" lon="6.44588">
        <ele>199</ele>
        <time>2018-03-25T16:00:46Z</time>
      </trkpt>
      <trkpt lat="43.54607" lon="6.44576">
        <ele>200</ele>
        <time>2018-03-25T16:01:46Z</time>
      </trkpt>
      <trkpt lat="43.54633" lon="6.44551">
        <ele>201</ele>
        <time>2018-03-25T16:02:46Z</time>
      </trkpt>
      <trkpt lat="43.54639" lon="6.44526">
        <ele>200</ele>
        <time>2018-03-25T16:03:46Z</time>
      </trkpt>
      <trkpt lat="43.54636" lon="6.44499">
        <ele>200</ele>
        <time>2018-03-25T16:04:46Z</time>
      </trkpt>
      <trkpt lat="43.54621" lon="6.44475">
        <ele>200</ele>
        <time>2018-03-25T16:05:46Z</time>
      </trkpt>
      <trkpt lat="43.54598" lon="6.44461">
        <ele>199</ele>
        <time>2018-03-25T16:06:46Z</time>
      </trkpt>
      <trkpt lat="43.54557" lon="6.44443">
        <ele>199</ele>
        <time>2018-03-25T16:07:46Z</time>
      </trkpt>
      <trkpt lat="43.54547" lon="6.4442">
        <ele>199</ele>
        <time>2018-03-25T16:08:46Z</time>
      </trkpt>
      <trkpt lat="43.54546" lon="6.4439">
        <ele>200</ele>
        <time>2018-03-25T16:09:46Z</time>
      </trkpt>
      <trkpt lat="43.54549" lon="6.44348">
        <ele>200</ele>
        <time>2018-03-25T16:10:46Z</time>
      </trkpt>
      <trkpt lat="43.54586" lon="6.44258">
        <ele>200</ele>
        <time>2018-03-25T16:11:46Z</time>
      </trkpt>
      <trkpt lat="43.54605" lon="6.44218">
        <ele>199</ele>
        <time>2018-03-25T16:12:46Z</time>
      </trkpt>
      <trkpt lat="43.54618" lon="6.44211">
        <ele>199</ele>
        <time>2018-03-25T16:13:46Z</time>
      </trkpt>
      <trkpt lat="43.54633" lon="6.44218">
        <ele>199</ele>
        <time>2018-03-25T16:14:46Z</time>
      </trkpt>
      <trkpt lat="43.54654" lon="6.44237">
        <ele>199</ele>
        <time>2018-03-25T16:15:46Z</time>
      </trkpt>
      <trkpt lat="43.54708" lon="6.44281">
        <ele>201</ele>
        <time>2018-03-25T16:16:46Z</time>
      </trkpt>
      <trkpt lat="43.54724" lon="6.44278">
        <ele>201</ele>
        <time>2018-03-25T16:17:46Z</time>
      </trkpt>
      <trkpt lat="43.54739" lon="6.4426">
        <ele>201</ele>
        <time>2018-03-25T16:18:46Z</time>
      </trkpt>
      <trkpt lat="43.54782" lon="6.44214">
        <ele>200</ele>
        <time>2018-03-25T16:19:46Z</time>
      </trkpt>
      <trkpt lat="43.54831" lon="6.44171">
        <ele>199</ele>
        <time>2018-03-25T16:20:46Z</time>
      </trkpt>
      <trkpt lat="43.549" lon="6.44128">
        <ele>200</ele>
        <time>2018-03-25T16:21:46Z</time>
      </trkpt>
      <trkpt lat="43.54954" lon="6.44078">
        <ele>201</ele>
        <time>2018-03-25T16:22:46Z</time>
      </trkpt>
      <trkpt lat="43.54996" lon="6.43998">
        <ele>202</ele>
        <time>2018-03-25T16:23:46Z</time>
      </trkpt>
      <trkpt lat="43.55074" lon="6.43848">
        <ele>201</ele>
        <time>2018-03-25T16:24:46Z</time>
      </trkpt>
      <trkpt lat="43.55104" lon="6.43777">
        <ele>202</ele>
        <time>2018-03-25T16:25:46Z</time>
      </trkpt>
      <trkpt lat="43.5513" lon="6.4373">
        <ele>200</ele>
        <time>2018-03-25T16:26:46Z</time>
      </trkpt>
      <trkpt lat="43.55187" lon="6.43692">
        <ele>203</ele>
        <time>2018-03-25T16:27:46Z</time>
      </trkpt>
      <trkpt lat="43.55242" lon="6.43658">
        <ele>201</ele>
        <time>2018-03-25T16:28:46Z</time>
      </trkpt>
      <trkpt lat="43.55265" lon="6.43658">
        <ele>205</ele>
        <time>2018-03-25T16:29:46Z</time>
      </trkpt>
      <trkpt lat="43.55282" lon="6.43634">
        <ele>205</ele>
        <time>2018-03-25T16:30:46Z</time>
      </trkpt>
      <trkpt lat="43.55309" lon="6.43599">
        <ele>205</ele>
        <time>2018-03-25T16:31:46Z</time>
      </trkpt>
      <trkpt lat="43.55386" lon="6.43518">
        <ele>203</ele>
        <time>2018-03-25T16:32:46Z</time>
      </trkpt>
      <trkpt lat="43.55473" lon="6.43485">
        <ele>202</ele>
        <time>2018-03-25T16:33:46Z</time>
      </trkpt>
      <trkpt lat="43.55494" lon="6.43507">
        <ele>208</ele>
        <time>2018-03-25T16:34:46Z</time>
      </trkpt>
      <trkpt lat="43.55517" lon="6.43529">
        <ele>213</ele>
        <time>2018-03-25T16:35:46Z</time>
      </trkpt>
      <trkpt lat="43.55591" lon="6.43521">
        <ele>214</ele>
        <time>2018-03-25T16:36:46Z</time>
      </trkpt>
      <trkpt lat="43.55609" lon="6.4352">
        <ele>216</ele>
        <time>2018-03-25T16:37:46Z</time>
      </trkpt>
      <trkpt lat="43.55631" lon="6.43517">
        <ele>217</ele>
        <time>2018-03-25T16:38:46Z</time>
      </trkpt>
      <trkpt lat="43.55675" lon="6.43508">
        <ele>221</ele>
        <time>2018-03-25T16:39:46Z</time>
      </trkpt>
      <trkpt lat="43.55699" lon="6.43502">
        <ele>227</ele>
        <time>2018-03-25T16:40:46Z</time>
      </trkpt>
      <trkpt lat="43.55711" lon="6.43486">
        <ele>220</ele>
        <time>2018-03-25T16:41:46Z</time>
      </trkpt>
      <trkpt lat="43.55718" lon="6.43469">
        <ele>219</ele>
        <time>2018-03-25T16:42:46Z</time>
      </trkpt>
      <trkpt lat="43.55728" lon="6.43437">
        <ele>218</ele>
        <time>2018-03-25T16:43:46Z</time>
      </trkpt>
      <trkpt lat="43.55738" lon="6.43393">
        <ele>217</ele>
        <time>2018-03-25T16:44:46Z</time>
      </trkpt>
      <trkpt lat="43.55737" lon="6.43352">
        <ele>219</ele>
        <time>2018-03-25T16:45:46Z</time>
      </trkpt>
      <trkpt lat="43.55743" lon="6.43303">
        <ele>217</ele>
        <time>2018-03-25T16:46:46Z</time>
      </trkpt>
      <trkpt lat="43.55733" lon="6.43305">
        <ele>216</ele>
        <time>2018-03-25T16:47:46Z</time>
      </trkpt>
      <trkpt lat="43.55733" lon="6.4333">
        <ele>219</ele>
        <time>2018-03-25T16:48:46Z</time>
      </trkpt>
      <trkpt lat="43.55729" lon="6.43397">
        <ele>216</ele>
        <time>2018-03-25T16:49:46Z</time>
      </trkpt>
      <trkpt lat="43.5565" lon="6.43354">
        <ele>207</ele>
        <time>2018-03-25T16:50:46Z</time>
      </trkpt>
      <trkpt lat="43.55626" lon="6.43363">
        <ele>206</ele>
        <time>2018-03-25T16:51:46Z</time>
      </trkpt>
      <trkpt lat="43.55599" lon="6.43355">
        <ele>204</ele>
        <time>2018-03-25T16:52:46Z</time>
      </trkpt>
      <trkpt lat="43.55563" lon="6.43332">
        <ele>199</ele>
        <time>2018-03-25T16:53:46Z</time>
      </trkpt>
      <trkpt lat="43.55547" lon="6.43331">
        <ele>198</ele>
        <time>2018-03-25T16:54:46Z</time>
      </trkpt>
      <trkpt lat="43.55533" lon="6.43344">
        <ele>200</ele>
        <time>2018-03-25T16:55:46Z</time>
      </trkpt>
      <trkpt lat="43.55522" lon="6.43369">
        <ele>200</ele>
        <time>2018-03-25T16:56:46Z</time>
      </trkpt>
      <trkpt lat="43.55503" lon="6.43441">
        <ele>203</ele>
        <time>2018-03-25T16:57:46Z</time>
      </trkpt>
      <trkpt lat="43.55498" lon="6.43459">
        <ele>202</ele>
        <time>2018-03-25T16:58:46Z</time>
      </trkpt>
      <trkpt lat="43.55477" lon="6.43475">
        <ele>202</ele>
        <time>2018-03-25T16:59:46Z</time>
      </trkpt>
      <trkpt lat="43.55382" lon="6.43511">
        <ele>203</ele>
        <time>2018-03-25T17:00:46Z</time>
      </trkpt>
      <trkpt lat="43.55332" lon="6.43565">
        <ele>202</ele>
        <time>2018-03-25T17:01:46Z</time>
      </trkpt>
      <trkpt lat="43.55299" lon="6.43596">
        <ele>205</ele>
        <time>2018-03-25T17:02:46Z</time>
      </trkpt>
      <trkpt lat="43.55279" lon="6.43618">
        <ele>204</ele>
        <time>2018-03-25T17:03:46Z</time>
      </trkpt>
      <trkpt lat="43.55266" lon="6.4364">
        <ele>205</ele>
        <time>2018-03-25T17:04:46Z</time>
      </trkpt>
      <trkpt lat="43.55251" lon="6.43641">
        <ele>204</ele>
        <time>2018-03-25T17:05:46Z</time>
      </trkpt>
      <trkpt lat="43.55238" lon="6.43638">
        <ele>199</ele>
        <time>2018-03-25T17:06:46Z</time>
      </trkpt>
      <trkpt lat="43.55215" lon="6.43603">
        <ele>197</ele>
        <time>2018-03-25T17:07:46Z</time>
      </trkpt>
      <trkpt lat="43.55154" lon="6.4349">
        <ele>192</ele>
        <time>2018-03-25T17:08:46Z</time>
      </trkpt>
      <trkpt lat="43.5513" lon="6.43446">
        <ele>192</ele>
        <time>2018-03-25T17:09:46Z</time>
      </trkpt>
      <trkpt lat="43.55079" lon="6.43503">
        <ele>191</ele>
        <time>2018-03-25T17:10:46Z</time>
      </trkpt>
      <trkpt lat="43.55002" lon="6.43369">
        <ele>192</ele>
        <time>2018-03-25T17:11:46Z</time>
      </trkpt>
      <trkpt lat="43.54973" lon="6.43395">
        <ele>191</ele>
        <time>2018-03-25T17:12:46Z</time>
      </trkpt>
      <trkpt lat="43.54959" lon="6.43418">
        <ele>191</ele>
        <time>2018-03-25T17:13:46Z</time>
      </trkpt>
      <trkpt lat="43.54955" lon="6.43439">
        <ele>191</ele>
        <time>2018-03-25T17:14:46Z</time>
      </trkpt>
      <trkpt lat="43.54951" lon="6.43476">
        <ele>192</ele>
        <time>2018-03-25T17:15:46Z</time>
      </trkpt>
      <trkpt lat="43.54945" lon="6.43505">
        <ele>192</ele>
        <time>2018-03-25T17:16:46Z</time>
      </trkpt>
      <trkpt lat="43.54926" lon="6.4352">
        <ele>192</ele>
        <time>2018-03-25T17:17:46Z</time>
      </trkpt>
      <trkpt lat="43.54899" lon="6.43531">
        <ele>192</ele>
        <time>2018-03-25T17:18:46Z</time>
      </trkpt>
      <trkpt lat="43.54881" lon="6.43541">
        <ele>191</ele>
        <time>2018-03-25T17:19:46Z</time>
      </trkpt>
      <trkpt lat="43.54861" lon="6.43563">
        <ele>191</ele>
        <time>2018-03-25T17:20:46Z</time>
      </trkpt>
      <trkpt lat="43.54845" lon="6.43585">
        <ele>190</ele>
        <time>2018-03-25T17:21:46Z</time>
      </trkpt>
      <trkpt lat="43.54823" lon="6.43608">
        <ele>190</ele>
        <time>2018-03-25T17:22:46Z</time>
      </trkpt>
      <trkpt lat="43.54799" lon="6.43627">
        <ele>190</ele>
        <time>2018-03-25T17:23:46Z</time>
      </trkpt>
      <trkpt lat="43.54778" lon="6.43646">
        <ele>190</ele>
        <time>2018-03-25T17:24:46Z</time>
      </trkpt>
      <trkpt lat="43.54754" lon="6.43682">
        <ele>190</ele>
        <time>2018-03-25T17:25:46Z</time>
      </trkpt>
      <trkpt lat="43.54741" lon="6.43727">
        <ele>190</ele>
        <time>2018-03-25T17:26:46Z</time>
      </trkpt>
      <trkpt lat="43.54721" lon="6.43775">
        <ele>191</ele>
        <time>2018-03-25T17:27:46Z</time>
      </trkpt>
      <trkpt lat="43.54695" lon="6.43813">
        <ele>192</ele>
        <time>2018-03-25T17:28:46Z</time>
      </trkpt>
      <trkpt lat="43.54665" lon="6.43844">
        <ele>192</ele>
        <time>2018-03-25T17:29:46Z</time>
      </trkpt>
      <trkpt lat="43.5464" lon="6.43865">
        <ele>192</ele>
        <time>2018-03-25T17:30:46Z</time>
      </trkpt>
      <trkpt lat="43.54629" lon="6.43892">
        <ele>193</ele>
        <time>2018-03-25T17:31:46Z</time>
      </trkpt>
      <trkpt lat="43.54613" lon="6.43914">
        <ele>193</ele>
        <time>2018-03-25T17:32:46Z</time>
      </trkpt>
      <trkpt lat="43.54592" lon="6.43931">
        <ele>194</ele>
        <time>2018-03-25T17:33:46Z</time>
      </trkpt>
      <trkpt lat="43.54568" lon="6.4394">
        <ele>193</ele>
        <time>2018-03-25T17:34:46Z</time>
      </trkpt>
      <trkpt lat="43.54526" lon="6.43933">
        <ele>193</ele>
        <time>2018-03-25T17:35:46Z</time>
      </trkpt>
      <trkpt lat="43.5449" lon="6.43931">
        <ele>192</ele>
        <time>2018-03-25T17:36:46Z</time>
      </trkpt>
      <trkpt lat="43.54464" lon="6.43935">
        <ele>192</ele>
        <time>2018-03-25T17:37:46Z</time>
      </trkpt>
      <trkpt lat="43.54434" lon="6.43949">
        <ele>192</ele>
        <time>2018-03-25T17:38:46Z</time>
      </trkpt>
      <trkpt lat="43.54406" lon="6.43981">
        <ele>192</ele>
        <time>2018-03-25T17:39:46Z</time>
      </trkpt>
      <trkpt lat="43.54383" lon="6.44021">
        <ele>193</ele>
        <time>2018-03-25T17:40:46Z</time>
      </trkpt>
      <trkpt lat="43.54362" lon="6.44095">
        <ele>193</ele>
        <time>2018-03-25T17:41:46Z</time>
      </trkpt>
      <trkpt lat="43.54346" lon="6.44173">
        <ele>194</ele>
        <time>2018-03-25T17:42:46Z</time>
      </trkpt>
      <trkpt lat="43.54336" lon="6.4422">
        <ele>194</ele>
        <time>2018-03-25T17:43:46Z</time>
      </trkpt>
      <trkpt lat="43.54337" lon="6.44266">
        <ele>194</ele>
        <time>2018-03-25T17:44:46Z</time>
      </trkpt>
      <trkpt lat="43.54338" lon="6.44321">
        <ele>194</ele>
        <time>2018-03-25T17:45:46Z</time>
      </trkpt>
      <trkpt lat="43.54327" lon="6.44367">
        <ele>191</ele>
        <time>2018-03-25T17:46:46Z</time>
      </trkpt>
      <trkpt lat="43.54305" lon="6.44406">
        <ele>191</ele>
        <time>2018-03-25T17:47:46Z</time>
      </trkpt>
      <trkpt lat="43.54291" lon="6.44431">
        <ele>189</ele>
        <time>2018-03-25T17:48:46Z</time>
      </trkpt>
      <trkpt lat="43.54275" lon="6.44487">
        <ele>189</ele>
        <time>2018-03-25T17:49:46Z</time>
      </trkpt>
      <trkpt lat="43.54249" lon="6.44543">
        <ele>187</ele>
        <time>2018-03-25T17:50:46Z</time>
      </trkpt>
      <trkpt lat="43.54237" lon="6.44562">
        <ele>187</ele>
        <time>2018-03-25T17:51:46Z</time>
      </trkpt>
      <trkpt lat="43.54235" lon="6.44606">
        <ele>187</ele>
        <time>2018-03-25T17:52:46Z</time>
      </trkpt>
      <trkpt lat="43.5417" lon="6.44634">
        <ele>185</ele>
        <time>2018-03-25T17:53:46Z</time>
      </trkpt>
      <trkpt lat="43.54165" lon="6.44651">
        <ele>183</ele>
        <time>2018-03-25T17:54:46Z</time>
      </trkpt>
      <trkpt lat="43.5416" lon="6.44695">
        <ele>182</ele>
        <time>2018-03-25T17:55:46Z</time>
      </trkpt>
      <trkpt lat="43.54142" lon="6.44787">
        <ele>181</ele>
        <time>2018-03-25T17:56:46Z</time>
      </trkpt>
      <trkpt lat="43.54138" lon="6.44822">
        <ele>181</ele>
        <time>2018-03-25T17:57:46Z</time>
      </trkpt>
      <trkpt lat="43.5414" lon="6.44862">
        <ele>181</ele>
        <time>2018-03-25T17:58:46Z</time>
      </trkpt>
      <trkpt lat="43.54212" lon="6.44872">
        <ele>183</ele>
        <time>2018-03-25T17:59:46Z</time>
      </trkpt>
      <trkpt lat="43.54271" lon="6.44899">
        <ele>185</ele>
        <time>2018-03-25T18:00:46Z</time>
      </trkpt>
      <trkpt lat="43.54306" lon="6.44927">
        <ele>185</ele>
        <time>2018-03-25T18:01:46Z</time>
      </trkpt>
      <trkpt lat="43.54453" lon="6.45039">
        <ele>193</ele>
        <time>2018-03-25T18:02:46Z</time>
      </trkpt>
      <trkpt lat="43.54422" lon="6.45082">
        <ele>192</ele>
        <time>2018-03-25T18:03:46Z</time>
      </trkpt>
      <trkpt lat="43.54396" lon="6.45117">
        <ele>191</ele>
        <time>2018-03-25T18:04:46Z</time>
      </trkpt>
      <trkpt lat="43.54374" lon="6.45151">
        <ele>190</ele>
        <time>2018-03-25T18:05:46Z</time>
      </trkpt>
      <trkpt lat="43.54349" lon="6.4519">
        <ele>192</ele>
        <time>2018-03-25T18:06:46Z</time>
      </trkpt>
      <trkpt lat="43.54329" lon="6.45243">
        <ele>193</ele>
        <time>2018-03-25T18:07:46Z</time>
      </trkpt>
      <trkpt lat="43.54319" lon="6.45274">
        <ele>194</ele>
        <time>2018-03-25T18:08:46Z</time>
      </trkpt>
      <trkpt lat="43.54354" lon="6.45287">
        <ele>197</ele>
        <time>2018-03-25T18:09:46Z</time>
      </trkpt>
      <trkpt lat="43.54391" lon="6.45297">
        <ele>198</ele>
        <time>2018-03-25T18:10:46Z</time>
      </trkpt>
      <trkpt lat="43.54415" lon="6.45302">
        <ele>199</ele>
        <time>2018-03-25T18:11:46Z</time>
      </trkpt>
      <trkpt lat="43.54417" lon="6.45334">
        <ele>201</ele>
        <time>2018-03-25T18:12:46Z</time>
      </trkpt>
      <trkpt lat="43.5442" lon="6.4537">
        <ele>202</ele>
        <time>2018-03-25T18:13:46Z</time>
      </trkpt>
      <trkpt lat="43.54417" lon="6.45392">
        <ele>201</ele>
        <time>2018-03-25T18:14:46Z</time>
      </trkpt>
      <trkpt lat="43.54401" lon="6.45421">
        <ele>199</ele>
        <time>2018-03-25T18:15:46Z</time>
      </trkpt>
      <trkpt lat="43.54378" lon="6.45459">
        <ele>198</ele>
        <time>2018-03-25T18:16:46Z</time>
      </trkpt>
      <trkpt lat="43.5437" lon="6.45517">
        <ele>199</ele>
        <time>2018-03-25T18:17:46Z</time>
      </trkpt>
      <trkpt lat="43.54364" lon="6.45604">
        <ele>199</ele>
        <time>2018-03-25T18:18:46Z</time>
      </trkpt>
      <trkpt lat="43.54365" lon="6.45624">
        <ele>199</ele>
        <time>2018-03-25T18:19:46Z</time>
      </trkpt>
      <trkpt lat="43.54374" lon="6.45645">
        <ele>200</ele>
        <time>2018-03-25T18:20:46Z</time>
      </trkpt>
      <trkpt lat="43.54366" lon="6.45678">
        <ele>199</ele>
        <time>2018-03-25T18:21:46Z</time>
      </trkpt>
      <trkpt lat="43.54358" lon="6.45705">
        <ele>199</ele>
        <time>2018-03-25T18:22:46Z</time>
      </trkpt>
      <trkpt lat="43.54357" lon="6.45722">
        <ele>199</ele>
        <time>2018-03-25T18:23:46Z</time>
      </trkpt>
      <trkpt lat="43.54364" lon="6.45744">
        <ele>199</ele>
        <time>2018-03-25T18:24:46Z</time>
      </trkpt>
      <trkpt lat="43.54386" lon="6.45766">
        <ele>200</ele>
        <time>2018-03-25T18:25:46Z</time>
      </trkpt>
      <trkpt lat="43.5439" lon="6.45782">
        <ele>199</ele>
        <time>2018-03-25T18:26:46Z</time>
      </trkpt>
      <trkpt lat="43.54387" lon="6.45804">
        <ele>199</ele>
        <time>2018-03-25T18:27:46Z</time>
      </trkpt>
      <trkpt lat="43.5439" lon="6.45827">
        <ele>199</ele>
        <time>2018-03-25T18:28:46Z</time>
      </trkpt>
      <trkpt lat="43.54398" lon="6.45863">
        <ele>198</ele>
        <time>2018-03-25T18:29:46Z</time>
      </trkpt>
      <trkpt lat="43.5441" lon="6.45899">
        <ele>198</ele>
        <time>2018-03-25T18:30:46Z</time>
      </trkpt>
      <trkpt lat="43.54418" lon="6.45923">
        <ele>202</ele>
        <time>2018-03-25T18:31:46Z</time>
      </trkpt>
      <trkpt lat="43.54414" lon="6.45958">
        <ele>199</ele>
        <time>2018-03-25T18:32:46Z</time>
      </trkpt>
      <trkpt lat="43.54401" lon="6.46017">
        <ele>202</ele>
        <time>2018-03-25T18:33:46Z</time>
      </trkpt>
      <trkpt lat="43.54382" lon="6.46054">
        <ele>202</ele>
        <time>2018-03-25T18:34:46Z</time>
      </trkpt>
      <trkpt lat="43.54364" lon="6.46085">
        <ele>205</ele>
        <time>2018-03-25T18:35:46Z</time>
      </trkpt>
      <trkpt lat="43.5434" lon="6.46128">
        <ele>205</ele>
        <time>2018-03-25T18:36:46Z</time>
      </trkpt>
      <trkpt lat="43.54328" lon="6.46161">
        <ele>200</ele>
        <time>2018-03-25T18:37:46Z</time>
      </trkpt>
      <trkpt lat="43.54328" lon="6.46191">
        <ele>201</ele>
        <time>2018-03-25T18:38:46Z</time>
      </trkpt>
      <trkpt lat="43.54325" lon="6.46219">
        <ele>201</ele>
        <time>2018-03-25T18:39:46Z</time>
      </trkpt>
      <trkpt lat="43.54315" lon="6.46243">
        <ele>202</ele>
        <time>2018-03-25T18:40:46Z</time>
      </trkpt>
      <trkpt lat="43.54305" lon="6.46267">
        <ele>203</ele>
        <time>2018-03-25T18:41:46Z</time>
      </trkpt>
      <trkpt lat="43.54288" lon="6.46299">
        <ele>203</ele>
      </trkpt>
      <trkpt lat="43.54272" lon="6.46331">
        <ele>202</ele>
      </trkpt>
      <trkpt lat="43.54259" lon="6.46339">
        <ele>203</ele>
        <time>2018-03-25T18:44:46Z</time>
      </trkpt>
      <trkpt lat="43.5424" lon="6.46349">
        <ele>201</ele>
        <time>2018-03-25T18:45:46Z</time>
      </trkpt>
      <trkpt lat="43.5421" lon="6.46357">
        <ele>201</ele>
        <time>2018-03-25T18:46:46Z</time>
      </trkpt>
      <trkpt lat="43.54187" lon="6.46363">
        <ele>200</ele>
        <time>2018-03-25T18:47:46Z</time>
      </trkpt>
      <trkpt lat="43.54172" lon="6.46374">
        <ele>200</ele>
        <time>2018-03-25T18:48:46Z</time>
      </trkpt>
      <trkpt lat="43.54164" lon="6.46383">
        <ele>197</ele>
        <time>2018-03-25T18:49:46Z</time>
      </trkpt>
      <trkpt lat="43.54163" lon="6.46404">
        <ele>199</ele>
        <time>2018-03-25T18:50:46Z</time>
      </trkpt>
      <trkpt lat="43.54163" lon="6.46428">
        <ele>201</ele>
        <time>2018-03-25T18:51:46Z</time>
      </trkpt>
      <trkpt lat="43.54162" lon="6.46446">
        <ele>201</ele>
        <time>2018-03-25T18:52:46Z</time>
      </trkpt>
      <trkpt lat="43.54156" lon="6.46452">
        <ele>201</ele>
        <time>2018-03-25T18:53:46Z</time>
      </trkpt>
      <trkpt lat="43.54155" lon="6.465">
        <ele>202</ele>
        <time>2018-03-25T18:54:46Z</time>
      </trkpt>
      <trkpt lat="43.5413" lon="6.46525">
        <ele>201</ele>
        <time>2018-03-25T18:55:46Z</time>
      </trkpt>
      <trkpt lat="43.54103" lon="6.46548">
        <ele>201</ele>
        <time>2018-03-25T18:56:46Z</time>
      </trkpt>
      <trkpt lat="43.54117" lon="6.46578">
        <ele>201</ele>
        <time>2018-03-25T18:57:46Z</time>
      </trkpt>
      <trkpt lat="43.54125" lon="6.46615">
        <ele>202</ele>
        <time>2018-03-25T18:58:46Z</time>
      </trkpt>
      <trkpt lat="43.54127" lon="6.46633">
        <ele>202</ele>
      </trkpt>
      <trkpt lat="43.54123" lon="6.46645">
        <ele>202</ele>
      </trkpt>
      <trkpt lat="43.54113" lon="6.46645">
        <ele>202</ele>
        <time>2018-03-25T19:00:46Z</time>
      </trkpt>
      <trkpt lat="43.541" lon="6.46661">
        <ele>201</ele>
        <time>2018-03-25T19:01:46Z</time>
      </trkpt>
      <trkpt lat="43.54073" lon="6.46678">
        <ele>201</ele>
        <time>2018-03-25T19:02:46Z</time>
      </trkpt>
      <trkpt lat="43.54042" lon="6.46697">
        <ele>201</ele>
        <time>2018-03-25T19:03:46Z</time>
      </trkpt>
      <trkpt lat="43.54009" lon="6.46717">
        <ele>200</ele>
        <time>2018-03-25T19:04:46Z</time>
      </trkpt>
      <trkpt lat="43.53994" lon="6.46724">
        <ele>196</ele>
        <time>2018-03-25T19:05:46Z</time>
      </trkpt>
      <trkpt lat="43.53978" lon="6.46731">
        <ele>196</ele>
        <time>2018-03-25T19:06:46Z</time>
      </trkpt>
      <trkpt lat="43.53964" lon="6.46734">
        <ele>195</ele>
        <time>2018-03-25T19:07:46Z</time>
      </trkpt>
      <trkpt lat="43.5395" lon="6.46737">
        <ele>194</ele>
        <time>2018-03-25T19:08:46Z</time>
      </trkpt>
      <trkpt lat="43.53935" lon="6.46736">
        <ele>193</ele>
        <time>2018-03-25T19:09:46Z</time>
      </trkpt>
      <trkpt lat="43.53917" lon="6.4672">
        <ele>194</ele>
        <time>2018-03-25T19:10:46Z</time>
      </trkpt>
      <trkpt lat="43.53906" lon="6.46705">
        <ele>192</ele>
        <time>2018-03-25T19:11:46Z</time>
      </trkpt>
      <trkpt lat="43.53891" lon="6.46681">
        <ele>192</ele>
        <time>2018-03-25T19:12:46Z</time>
      </trkpt>
      <trkpt lat="43.53872" lon="6.46644">
        <ele>193</ele>
        <time>2018-03-25T19:13:46Z</time>
      </trkpt>
      <trkpt lat="43.53903" lon="6.46611">
        <ele>194</ele>
        <time>2018-03-25T19:14:46Z</time>
      </trkpt>
      <trkpt lat="43.53908" lon="6.46598">
        <ele>195</ele>
        <time>2018-03-25T19:15:46Z</time>
      </trkpt>
      <trkpt lat="43.53921" lon="6.46584">
        <ele>197</ele>
        <time>2018-03-25T19:16:46Z</time>
      </trkpt>
      <trkpt lat="43.53925" lon="6.46592">
        <ele>197</ele>
        <time>2018-03-25T19:17:46Z</time>
      </trkpt>
      <trkpt lat="43.53918" lon="6.46602">
        <ele>197</ele>
        <time>2018-03-25T19:18:46Z</time>
      </trkpt>
      <trkpt lat="43.5392" lon="6.46609">
        <ele>197</ele>
        <time>2018-03-25T19:19:46Z</time>
      </trkpt>
      <trkpt lat="43.5393" lon="6.46599">
        <ele>198</ele>
        <time>2018-03-25T19:20:46Z</time>
      </trkpt>
      <trkpt lat="43.53933" lon="6.46605">
        <ele>198</ele>
        <time>2018-03-25T19:21:46Z</time>
      </trkpt>
      <trkpt lat="43.53923" lon="6.46617">
        <ele>197</ele>
        <time>2018-03-25T19:22:46Z</time>
      </trkpt>
      <trkpt lat="43.53926" lon="6.46623">
        <ele>197</ele>
        <time>2018-03-25T19:23:46Z</time>
      </trkpt>
      <trkpt lat="43.53937" lon="6.46612">
        <ele>198</ele>
        <time>2018-03-25T19:24:46Z</time>
      </trkpt>
      <trkpt lat="43.53936" lon="6.46631">
        <ele>197</ele>
        <time>2018-03-25T19:25:46Z</time>
      </trkpt>
      <trkpt lat="43.53937" lon="6.46637">
        <ele>197</ele>
        <time>2018-03-25T19:26:46Z</time>
      </trkpt>
      <trkpt lat="43.53939" lon="6.46643">
        <ele>197</ele>
        <time>2018-03-25T19:27:46Z</time>
      </trkpt>
      <trkpt lat="43.53943" lon="6.46649">
        <ele>197</ele>
        <time>2018-03-25T19:28:46Z</time>
      </trkpt>
      <trkpt lat="43.53948" lon="6.46652">
        <ele>197</ele>
        <time>2018-03-25T19:29:46Z</time>
      </trkpt>
      <trkpt lat="43.53955" lon="6.46661">
        <ele>198</ele>
        <time>2018-03-25T19:30:46Z</time>
      </trkpt>
      <trkpt lat="43.53963" lon="6.46673">
        <ele>196</ele>
        <time>2018-03-25T19:31:46Z</time>
      </trkpt>
      <trkpt lat="43.53967" lon="6.46674">
        <ele>197</ele>
        <time>2018-03-25T19:32:46Z</time>
      </trkpt>
      <trkpt lat="43.53973" lon="6.46669">
        <ele>197</ele>
        <time>2018-03-25T19:33:46Z</time>
      </trkpt>
      <trkpt lat="43.53983" lon="6.46632">
        <ele>199</ele>
        <time>2018-03-25T19:34:46Z</time>
      </trkpt>
      <trkpt lat="43.53975" lon="6.46631">
        <ele>199</ele>
        <time>2018-03-25T19:35:46Z</time>
      </trkpt>
      <trkpt lat="43.53967" lon="6.46625">
        <ele>199</ele>
        <time>2018-03-25T19:36:46Z</time>
      </trkpt>
      <trkpt lat="43.53965" lon="6.46619">
        <ele>199</ele>
        <time>2018-03-25T19:37:46Z</time>
      </trkpt>
      <trkpt lat="43.53962" lon="6.46606">
        <ele>199</ele>
        <time>2018-03-25T19:38:46Z</time>
      </trkpt>
      <trkpt lat="43.5397" lon="6.4659">
        <ele>199</ele>
        <time>2018-03-25T19:39:46Z</time>
      </trkpt>
      <trkpt lat="43.53974" lon="6.46584">
        <ele>199</ele>
        <time>2018-03-25T19:40:46Z</time>
      </trkpt>
      <trkpt lat="43.53961" lon="6.46562">
        <ele>198</ele>
        <time>2018-03-25T19:41:46Z</time>
      </trkpt>
      <trkpt lat="43.53949" lon="6.46538">
        <ele>198</ele>
        <time>2018-03-25T19:42:46Z</time>
      </trkpt>
      <trkpt lat="43.53935" lon="6.46512">
        <ele>197</ele>
        <time>2018-03-25T19:43:46Z</time>
      </trkpt>
      <trkpt lat="43.53928" lon="6.46514">
        <ele>197</ele>
        <time>2018-03-25T19:44:46Z</time>
      </trkpt>
      <trkpt lat="43.53919" lon="6.46511">
        <ele>197</ele>
        <time>2018-03-25T19:45:46Z</time>
      </trkpt>
      <trkpt lat="43.53903" lon="6.46501">
        <ele>195</ele>
        <time>2018-03-25T19:46:46Z</time>
      </trkpt>
      <trkpt lat="43.53889" lon="6.46492">
        <ele>193</ele>
        <time>2018-03-25T19:47:46Z</time>
      </trkpt>
      <trkpt lat="43.53876" lon="6.46478">
        <ele>191</ele>
        <time>2018-03-25T19:48:46Z</time>
      </trkpt>
      <trkpt lat="43.5387" lon="6.46466">
        <ele>191</ele>
        <time>2018-03-25T19:49:46Z</time>
      </trkpt>
      <trkpt lat="43.53861" lon="6.46449">
        <ele>190</ele>
        <time>2018-03-25T19:50:46Z</time>
      </trkpt>
      <trkpt lat="43.53851" lon="6.46431">
        <ele>189</ele>
        <time>2018-03-25T19:51:46Z</time>
      </trkpt>
      <trkpt lat="43.53845" lon="6.46421">
        <ele>189</ele>
        <time>2018-03-25T19:52:46Z</time>
      </trkpt>
      <trkpt lat="43.53832" lon="6.46401">
        <ele>186</ele>
        <time>2018-03-25T19:53:46Z</time>
      </trkpt>
      <trkpt lat="43.53823" lon="6.46389">
        <ele>185</ele>
        <time>2018-03-25T19:54:46Z</time>
      </trkpt>
      <trkpt lat="43.53795" lon="6.46352">
        <ele>185</ele>
        <time>2018-03-25T19:55:46Z</time>
      </trkpt>
      <trkpt lat="43.53748" lon="6.46292">
        <ele>184</ele>
        <time>2018-03-25T19:56:46Z</time>
      </trkpt>
    </trkseg>
  </trk>
</gpx>